Time;durP1;ratioP1;P1;durP2;ratioP2;P2;SDS_P1;SDS_P2;PMS_P1;PMS_P2;Temp;Humidity;BMP_temperature;BMP_pressure;BME280_temperature;BME280_humidity;BME280_pressure;Samples;Min_cycle;Max_cycle;Signal;HPM_P1;HPM_P2
2023/09/27 00:00:09;;;;;;;14.57;6.30;;;;;;;21.09;48.97;99823.59;4357476;32;34940;-84
2023/09/27 00:02:38;;;;;;;10.23;6.12;;;;;;;21.07;49.48;99828.91;4358514;32;33548;-84
2023/09/27 00:05:10;;;;;;;13.35;6.30;;;;;;;21.11;49.83;99829.72;4349228;32;34873;-85
2023/09/27 00:07:39;;;;;;;16.30;6.25;;;;;;;20.96;49.90;99830.00;4349603;32;34147;-84
2023/09/27 00:10:11;;;;;;;13.40;6.47;;;;;;;21.04;49.95;99825.47;4357285;32;34988;-85
2023/09/27 00:12:40;;;;;;;10.32;5.82;;;;;;;21.01;49.76;99825.50;4354036;32;33224;-84
2023/09/27 00:15:10;;;;;;;15.73;5.90;;;;;;;21.03;49.89;99824.59;4355532;32;34716;-84
2023/09/27 00:17:39;;;;;;;10.07;5.90;;;;;;;20.84;49.94;99824.06;4356272;32;33873;-85
2023/09/27 00:20:15;;;;;;;18.00;6.53;;;;;;;20.91;49.94;99827.47;4354396;32;34952;-83
2023/09/27 00:22:44;;;;;;;17.52;6.05;;;;;;;20.87;50.67;99818.75;4344794;32;33419;-85
2023/09/27 00:25:12;;;;;;;12.37;5.80;;;;;;;20.89;50.21;99819.56;4344935;32;34089;-85
2023/09/27 00:27:40;;;;;;;10.98;6.03;;;;;;;20.88;50.07;99822.25;4358547;32;33967;-86
2023/09/27 00:30:09;;;;;;;9.45;6.53;;;;;;;20.80;50.31;99819.75;4354786;32;33622;-84
2023/09/27 00:32:36;;;;;;;13.40;6.28;;;;;;;20.84;50.35;99821.44;4353220;32;34586;-85
2023/09/27 00:35:04;;;;;;;10.32;6.45;;;;;;;20.76;50.69;99819.81;4359617;32;33671;-86
2023/09/27 00:37:35;;;;;;;12.23;6.35;;;;;;;20.77;50.60;99825.06;4359138;32;34264;-85
2023/09/27 00:40:09;;;;;;;12.45;6.35;;;;;;;20.74;50.93;99819.84;4345759;32;34329;-87
2023/09/27 00:42:37;;;;;;;11.40;6.53;;;;;;;20.66;51.03;99819.13;4348890;32;33510;-85
2023/09/27 00:45:06;;;;;;;12.80;6.68;;;;;;;20.47;51.66;99825.59;4350486;32;34459;-85
2023/09/27 00:47:34;;;;;;;11.10;6.65;;;;;;;20.49;51.91;99824.69;4351046;32;34124;-86
2023/09/27 00:50:02;;;;;;;9.27;6.43;;;;;;;20.46;51.75;99824.72;4353065;32;33868;-87
2023/09/27 00:52:33;;;;;;;10.10;5.93;;;;;;;20.38;51.85;99824.84;4345849;32;33783;-86
2023/09/27 00:55:01;;;;;;;11.02;6.15;;;;;;;20.33;52.27;99828.44;4348331;32;34589;-85
2023/09/27 00:57:29;;;;;;;15.68;6.62;;;;;;;20.24;52.43;99829.47;4357346;32;34201;-86
2023/09/27 00:59:56;;;;;;;10.60;6.57;;;;;;;20.34;51.98;99819.63;4357183;32;34541;-86
2023/09/27 01:02:24;;;;;;;12.93;7.18;;;;;;;20.24;52.23;99820.72;4357078;32;34437;-86
2023/09/27 01:04:52;;;;;;;14.43;7.00;;;;;;;20.20;52.46;99827.78;4351210;32;33572;-86
2023/09/27 01:07:20;;;;;;;12.68;6.90;;;;;;;20.22;52.44;99833.00;4351124;32;34948;-87
2023/09/27 01:09:48;;;;;;;15.88;7.62;;;;;;;20.17;52.80;99828.69;4344783;32;34546;-85
2023/09/27 01:12:15;;;;;;;15.50;7.12;;;;;;;19.98;53.34;99826.37;4344348;33;34399;-87
2023/09/27 01:14:44;;;;;;;11.70;6.97;;;;;;;20.00;53.26;99827.19;4353680;32;34633;-86
2023/09/27 01:17:12;;;;;;;12.93;6.60;;;;;;;20.03;53.20;99830.66;4357730;32;33922;-85
2023/09/27 01:19:40;;;;;;;10.02;6.68;;;;;;;20.02;53.07;99825.44;4348252;32;34631;-85
2023/09/27 01:22:07;;;;;;;9.82;6.62;;;;;;;19.93;53.40;99824.69;4356714;32;33411;-85
2023/09/27 01:24:36;;;;;;;12.52;7.03;;;;;;;20.00;53.34;99825.47;4356829;32;33836;-85
2023/09/27 01:27:07;;;;;;;14.77;7.45;;;;;;;19.91;53.48;99833.47;4361274;32;34278;-85
2023/09/27 01:29:35;;;;;;;11.55;7.37;;;;;;;19.88;53.83;99830.88;4360040;32;34302;-85
2023/09/27 01:32:02;;;;;;;10.38;6.53;;;;;;;19.71;54.04;99828.50;4353129;32;34611;-85
2023/09/27 01:34:30;;;;;;;13.93;7.75;;;;;;;19.82;53.77;99831.84;4355794;32;33643;-85
2023/09/27 01:36:58;;;;;;;11.85;7.62;;;;;;;19.80;53.82;99827.50;4351356;32;33467;-85
2023/09/27 01:39:25;;;;;;;9.00;6.72;;;;;;;19.74;54.28;99836.38;4359153;32;34652;-86
2023/09/27 01:41:55;;;;;;;14.55;7.55;;;;;;;19.77;54.04;99833.66;4358077;32;33011;-84
2023/09/27 01:44:23;;;;;;;10.70;7.20;;;;;;;19.65;53.18;99828.59;4349624;32;34569;-85
2023/09/27 01:46:51;;;;;;;14.35;7.03;;;;;;;19.75;53.85;99832.84;4357898;32;34189;-83
2023/09/27 01:49:18;;;;;;;15.57;7.15;;;;;;;19.92;52.77;99822.06;4352128;32;34249;-85
2023/09/27 01:51:46;;;;;;;12.48;7.10;;;;;;;19.75;53.78;99822.31;4351274;32;33881;-86
2023/09/27 01:54:13;;;;;;;14.87;6.87;;;;;;;19.77;52.86;99827.53;4356768;32;33587;-84
2023/09/27 01:56:41;;;;;;;14.82;7.20;;;;;;;19.71;52.93;99827.66;4346233;32;33907;-85
2023/09/27 01:59:08;;;;;;;12.65;6.40;;;;;;;19.79;52.33;99824.00;4349638;32;34337;-84
2023/09/27 02:01:36;;;;;;;12.70;6.62;;;;;;;19.89;52.54;99823.00;4350874;32;33478;-85
2023/09/27 02:04:05;;;;;;;15.45;7.03;;;;;;;19.96;52.84;99828.13;4346138;33;34727;-85
2023/09/27 02:06:32;;;;;;;13.23;7.18;;;;;;;19.92;53.14;99822.91;4348134;32;33778;-85
2023/09/27 02:09:00;;;;;;;19.60;7.72;;;;;;;19.91;53.02;99823.81;4349401;32;34399;-90
2023/09/27 02:11:27;;;;;;;12.70;6.85;;;;;;;19.94;52.71;99822.91;4359402;32;34651;-86
2023/09/27 02:13:56;;;;;;;13.50;6.75;;;;;;;19.96;52.58;99825.50;4349345;32;33454;-86
2023/09/27 02:16:23;;;;;;;11.98;6.82;;;;;;;20.10;52.50;99829.69;4356705;32;33812;-85
2023/09/27 02:18:52;;;;;;;12.65;6.60;;;;;;;20.02;52.46;99820.16;4345902;32;34435;-85
2023/09/27 02:21:20;;;;;;;11.45;7.35;;;;;;;20.07;52.54;99836.75;4355826;32;33329;-85
2023/09/27 02:23:47;;;;;;;11.55;7.18;;;;;;;20.09;52.91;99834.97;4348003;32;34021;-85
2023/09/27 02:26:15;;;;;;;13.68;7.57;;;;;;;19.96;52.91;99831.63;4355898;32;34110;-85
2023/09/27 02:28:44;;;;;;;12.82;6.85;;;;;;;20.11;52.64;99827.91;4354774;32;35119;-83
2023/09/27 02:31:12;;;;;;;12.60;6.90;;;;;;;20.33;51.25;99829.31;4356896;32;34590;-82
2023/09/27 02:33:40;;;;;;;12.40;6.85;;;;;;;19.79;52.65;99831.03;4342450;32;34943;-85
2023/09/27 02:36:10;;;;;;;10.63;6.95;;;;;;;20.01;52.54;99827.19;4350723;32;33685;-85
2023/09/27 02:38:37;;;;;;;13.45;7.47;;;;;;;19.99;52.58;99822.84;4351462;32;33725;-85
2023/09/27 02:41:05;;;;;;;13.02;6.60;;;;;;;20.03;52.69;99825.41;4354214;32;34409;-85
2023/09/27 02:43:32;;;;;;;13.05;6.85;;;;;;;20.18;52.35;99827.78;4360412;32;33798;-85
2023/09/27 02:46:00;;;;;;;11.95;6.47;;;;;;;20.27;51.74;99833.81;4356782;32;34099;-85
2023/09/27 02:48:29;;;;;;;12.57;7.45;;;;;;;19.87;52.44;99819.50;4355013;32;34357;-85
2023/09/27 02:50:56;;;;;;;13.00;6.80;;;;;;;20.07;52.48;99828.84;4349329;32;33833;-85
2023/09/27 02:53:24;;;;;;;12.73;6.65;;;;;;;20.01;52.13;99824.56;4358940;32;34676;-85
2023/09/27 02:55:51;;;;;;;12.10;5.93;;;;;;;19.84;52.77;99819.53;4360071;32;33559;-85
2023/09/27 02:58:21;;;;;;;14.60;7.72;;;;;;;19.96;52.51;99826.37;4354158;32;34836;-84
2023/09/27 03:00:48;;;;;;;11.43;6.12;;;;;;;19.79;53.17;99826.63;4351836;32;33163;-84
2023/09/27 03:03:19;;;;;;;20.35;8.23;;;;;;;19.93;52.37;99831.72;4345388;32;33846;-84
2023/09/27 03:05:47;;;;;;;11.50;6.95;;;;;;;20.06;52.54;99829.75;4350828;32;34821;-85
2023/09/27 03:08:14;;;;;;;13.02;7.37;;;;;;;20.06;52.48;99830.63;4345131;32;33484;-85
2023/09/27 03:10:42;;;;;;;14.23;6.90;;;;;;;19.96;52.86;99820.25;4350986;32;33592;-85
2023/09/27 03:13:11;;;;;;;13.52;7.25;;;;;;;20.12;52.27;99824.41;4350816;32;33481;-84
2023/09/27 03:15:38;;;;;;;13.73;7.70;;;;;;;19.99;52.56;99828.97;4348794;32;33917;-84
2023/09/27 03:18:08;;;;;;;12.77;6.62;;;;;;;20.07;52.85;99826.22;4357399;32;34043;-84
2023/09/27 03:20:36;;;;;;;17.55;7.35;;;;;;;20.05;52.68;99828.88;4345220;32;34594;-85
2023/09/27 03:23:03;;;;;;;13.85;6.85;;;;;;;20.00;52.47;99829.84;4348601;32;34897;-83
2023/09/27 03:25:31;;;;;;;11.98;6.93;;;;;;;19.99;52.53;99825.47;4355989;32;34901;-84
2023/09/27 03:27:59;;;;;;;15.45;7.03;;;;;;;19.99;52.63;99825.47;4363966;32;35108;-85
2023/09/27 03:30:26;;;;;;;14.90;7.32;;;;;;;19.92;52.85;99824.69;4351779;32;33398;-84
2023/09/27 03:32:54;;;;;;;14.07;7.35;;;;;;;20.03;52.39;99816.63;4347174;32;34664;-84
2023/09/27 03:35:22;;;;;;;13.18;6.97;;;;;;;20.20;52.09;99827.78;4351167;32;34013;-84
2023/09/27 03:37:50;;;;;;;10.27;6.62;;;;;;;20.03;52.70;99821.91;4360437;32;33853;-85
2023/09/27 03:40:18;;;;;;;13.13;7.30;;;;;;;19.83;53.10;99824.84;4346776;32;33291;-85
2023/09/27 03:42:46;;;;;;;11.57;7.50;;;;;;;19.98;53.08;99824.59;4359676;32;34915;-84
2023/09/27 03:45:14;;;;;;;14.90;6.78;;;;;;;20.09;53.05;99834.97;4352780;32;34689;-85
2023/09/27 03:47:45;;;;;;;13.35;6.97;;;;;;;19.97;52.66;99827.28;4346494;32;34845;-84
2023/09/27 03:50:14;;;;;;;12.40;7.05;;;;;;;20.23;52.50;99833.00;4355404;32;33751;-85
2023/09/27 03:52:43;;;;;;;14.25;7.65;;;;;;;20.20;52.99;99829.56;4349028;32;34014;-85
2023/09/27 03:55:11;;;;;;;17.87;7.20;;;;;;;20.23;53.36;99826.84;4353742;32;35129;-85
2023/09/27 03:57:40;;;;;;;12.95;7.28;;;;;;;20.27;53.16;99832.06;4355775;32;35258;-86
2023/09/27 04:00:14;;;;;;;15.32;7.75;;;;;;;20.25;53.14;99825.06;4358288;32;33317;-84
2023/09/27 04:02:43;;;;;;;10.93;7.45;;;;;;;20.26;54.09;99825.03;4352588;32;34010;-84
2023/09/27 04:05:11;;;;;;;11.07;7.25;;;;;;;20.36;53.60;99829.25;4350364;32;34008;-84
2023/09/27 04:07:39;;;;;;;14.13;7.78;;;;;;;20.26;53.83;99832.94;4347139;32;33036;-84
2023/09/27 04:10:08;;;;;;;12.07;7.62;;;;;;;20.14;54.11;99827.88;4351095;32;34429;-85
2023/09/27 04:12:36;;;;;;;14.55;7.07;;;;;;;20.15;54.10;99830.50;4351336;32;33597;-86
2023/09/27 04:15:08;;;;;;;13.02;7.90;;;;;;;20.15;54.13;99827.88;4366685;32;34268;-83
2023/09/27 04:17:37;;;;;;;16.05;7.20;;;;;;;20.00;54.67;99830.72;4352932;32;33693;-85
2023/09/27 04:20:16;;;;;;;11.90;7.28;;;;;;;19.84;53.77;99830.06;4347666;32;34540;-85
2023/09/27 04:22:47;;;;;;;14.18;7.80;;;;;;;19.68;53.82;99833.81;4351131;32;33749;-85
2023/09/27 04:25:15;;;;;;;12.43;7.32;;;;;;;19.89;54.18;99823.00;4355006;32;34012;-84
2023/09/27 04:27:45;;;;;;;12.02;7.50;;;;;;;19.91;54.44;99825.59;4351871;32;34640;-84
2023/09/27 04:30:19;;;;;;;13.23;7.95;;;;;;;19.97;54.05;99830.78;4352342;32;33341;-85
2023/09/27 04:32:50;;;;;;;14.20;7.40;;;;;;;19.79;54.31;99837.16;4350870;32;34636;-84
2023/09/27 04:35:19;;;;;;;13.10;7.20;;;;;;;19.79;54.61;99837.16;4348869;32;35098;-85
2023/09/27 04:37:48;;;;;;;14.27;6.82;;;;;;;19.93;54.48;99843.09;4344213;32;34236;-86
2023/09/27 04:40:16;;;;;;;13.68;7.68;;;;;;;19.73;53.91;99846.88;4347657;32;34532;-85
2023/09/27 04:42:45;;;;;;;12.05;7.45;;;;;;;19.82;54.67;99839.75;4358412;32;33395;-85
2023/09/27 04:45:13;;;;;;;14.68;7.87;;;;;;;19.90;54.60;99848.41;4352663;32;34189;-86
2023/09/27 04:47:41;;;;;;;15.65;8.10;;;;;;;19.79;55.22;99845.06;4360655;32;33974;-84
2023/09/27 04:50:10;;;;;;;14.27;7.85;;;;;;;19.83;55.57;99846.75;4352504;32;34676;-85
2023/09/27 04:52:38;;;;;;;16.40;7.70;;;;;;;19.83;55.17;99846.75;4351672;32;33416;-84
2023/09/27 04:55:08;;;;;;;13.35;8.48;;;;;;;19.73;55.21;99842.50;4348184;32;34892;-84
2023/09/27 04:57:38;;;;;;;12.93;8.23;;;;;;;19.64;54.86;99848.75;4345880;32;33504;-84
2023/09/27 05:00:11;;;;;;;13.90;7.47;;;;;;;19.90;54.59;99851.03;4348820;32;33475;-84
2023/09/27 05:02:41;;;;;;;13.30;7.60;;;;;;;19.80;54.63;99845.91;4362223;32;33946;-85
2023/09/27 05:05:08;;;;;;;15.35;8.82;;;;;;;19.73;54.83;99839.88;4376053;32;34192;-86
2023/09/27 05:07:36;;;;;;;17.80;7.68;;;;;;;19.65;55.27;99850.50;4355807;32;33994;-84
2023/09/27 05:10:04;;;;;;;13.45;7.87;;;;;;;19.88;54.83;99847.53;4356256;32;32484;-84
2023/09/27 05:12:32;;;;;;;15.85;8.20;;;;;;;19.82;55.10;99846.78;4351906;32;34138;-85
2023/09/27 05:14:59;;;;;;;15.40;7.22;;;;;;;19.92;55.47;99849.22;4332854;33;34917;-84
2023/09/27 05:17:27;;;;;;;14.85;7.90;;;;;;;19.99;53.87;99855.28;4346460;33;33967;-89
2023/09/27 05:19:55;;;;;;;14.77;7.03;;;;;;;20.07;54.06;99852.53;4346539;33;33421;-85
2023/09/27 05:22:22;;;;;;;15.25;7.85;;;;;;;20.05;53.24;99854.34;4358984;32;33651;-86
2023/09/27 05:24:50;;;;;;;19.08;7.85;;;;;;;20.08;54.07;99856.94;4361088;32;34135;-86
2023/09/27 05:27:17;;;;;;;14.00;7.37;;;;;;;20.24;53.77;99858.44;4360865;32;34981;-86
2023/09/27 05:29:45;;;;;;;12.00;7.47;;;;;;;20.25;53.50;99861.94;4361400;32;32896;-87
2023/09/27 05:32:13;;;;;;;13.95;7.68;;;;;;;20.31;53.78;99857.44;4360997;32;34080;-85
2023/09/27 05:34:40;;;;;;;14.65;7.60;;;;;;;20.46;53.43;99860.72;4361051;32;34925;-85
2023/09/27 05:37:08;;;;;;;14.27;7.80;;;;;;;20.44;53.63;99862.50;4360979;32;34337;-85
2023/09/27 05:39:35;;;;;;;14.57;7.30;;;;;;;20.46;53.78;99866.88;4360958;32;34674;-84
2023/09/27 05:42:03;;;;;;;15.27;7.28;;;;;;;20.46;53.13;99866.00;4355570;32;34857;-85
2023/09/27 05:44:30;;;;;;;11.52;7.80;;;;;;;20.45;53.24;99869.50;4347200;32;34874;-85
2023/09/27 05:46:58;;;;;;;17.45;7.85;;;;;;;20.46;54.23;99873.91;4345987;33;34501;-89
2023/09/27 05:49:26;;;;;;;15.43;7.68;;;;;;;20.53;52.73;99871.19;4347003;32;33551;-84
2023/09/27 05:51:55;;;;;;;16.40;7.35;;;;;;;20.47;52.38;99871.22;4345189;33;33599;-85
2023/09/27 05:54:23;;;;;;;11.70;6.85;;;;;;;20.33;52.89;99876.72;4345887;32;34161;-85
2023/09/27 05:56:54;;;;;;;13.50;6.85;;;;;;;20.48;53.21;99874.72;4346289;33;34126;-87
2023/09/27 05:59:24;;;;;;;16.73;7.70;;;;;;;20.38;53.99;99874.00;4346239;33;33424;-85
2023/09/27 06:01:52;;;;;;;14.32;7.50;;;;;;;20.71;52.62;99882.28;4360815;32;35239;-85
2023/09/27 06:04:22;;;;;;;14.35;8.10;;;;;;;20.42;53.45;99887.13;4361288;32;34585;-85
2023/09/27 06:06:50;;;;;;;12.65;7.93;;;;;;;20.61;52.91;99887.72;4360986;32;33324;-85
2023/09/27 06:09:18;;;;;;;16.05;7.62;;;;;;;20.69;52.99;99894.63;4351872;32;33524;-85
2023/09/27 06:11:46;;;;;;;13.20;7.60;;;;;;;20.15;53.77;99895.41;4346167;33;34158;-84
2023/09/27 06:14:14;;;;;;;15.15;8.07;;;;;;;20.51;52.98;99891.38;4346171;33;34248;-85
2023/09/27 06:16:44;;;;;;;13.32;7.45;;;;;;;20.32;53.85;99893.41;4346136;33;33660;-85
2023/09/27 06:19:12;;;;;;;13.75;7.72;;;;;;;20.54;52.47;99896.63;4345991;33;34469;-85
2023/09/27 06:21:40;;;;;;;17.17;7.60;;;;;;;20.42;53.42;99892.38;4345980;33;33798;-86
2023/09/27 06:24:08;;;;;;;15.27;7.32;;;;;;;20.54;53.17;99901.00;4350854;32;33347;-85
2023/09/27 06:26:36;;;;;;;12.85;7.32;;;;;;;20.64;52.94;99910.50;4350011;32;33778;-85
2023/09/27 06:29:04;;;;;;;14.85;7.47;;;;;;;20.81;52.03;99911.09;4345804;33;33705;-85
2023/09/27 06:31:31;;;;;;;15.90;7.22;;;;;;;20.76;52.57;99920.84;4345809;33;34632;-84
2023/09/27 06:34:00;;;;;;;11.95;7.05;;;;;;;20.58;52.75;99918.50;4345924;33;33334;-84
2023/09/27 06:36:29;;;;;;;13.65;7.70;;;;;;;20.55;52.42;99921.19;4345649;33;34230;-85
2023/09/27 06:38:57;;;;;;;12.10;6.60;;;;;;;20.40;52.64;99925.75;4346213;32;33365;-84
2023/09/27 06:41:24;;;;;;;17.25;7.47;;;;;;;20.66;52.81;99921.88;4359208;32;34006;-85
2023/09/27 06:43:53;;;;;;;13.43;7.15;;;;;;;20.71;53.08;99930.56;4350365;32;34907;-85
2023/09/27 06:46:22;;;;;;;13.88;7.10;;;;;;;20.63;53.01;99927.19;4358314;32;35636;-86
2023/09/27 06:48:54;;;;;;;13.80;7.62;;;;;;;20.73;52.81;99928.81;4360859;32;33780;-84
2023/09/27 06:51:22;;;;;;;11.55;7.03;;;;;;;20.95;52.77;99937.22;4360829;32;33846;-84
2023/09/27 06:53:49;;;;;;;15.93;7.93;;;;;;;21.07;51.86;99942.28;4360870;32;34161;-84
2023/09/27 06:56:17;;;;;;;14.10;7.35;;;;;;;21.08;52.00;99940.50;4360719;32;34645;-86
2023/09/27 06:58:44;;;;;;;11.82;7.25;;;;;;;21.07;52.54;99938.78;4360678;32;33373;-85
2023/09/27 07:01:13;;;;;;;12.45;7.18;;;;;;;21.09;52.21;99936.97;4350597;32;33892;-85
2023/09/27 07:03:41;;;;;;;12.70;7.37;;;;;;;21.23;51.60;99942.00;4345008;33;34021;-85
2023/09/27 07:06:09;;;;;;;14.60;8.00;;;;;;;21.11;52.09;99943.09;4357898;32;35156;-85
2023/09/27 07:08:36;;;;;;;14.25;7.57;;;;;;;21.48;51.23;99945.06;4360630;32;33849;-85
2023/09/27 07:11:08;;;;;;;14.07;6.87;;;;;;;21.26;52.37;99940.16;4360160;32;33605;-86
2023/09/27 07:13:37;;;;;;;16.48;7.85;;;;;;;21.18;52.30;99942.09;4369816;32;34187;-86
2023/09/27 07:16:29;;;;;;;13.95;7.28;;;;;;;21.14;52.60;99943.03;4359286;32;34490;-86
2023/09/27 07:18:59;;;;;;;12.55;7.18;;;;;;;20.94;53.03;99953.03;4360444;32;34378;-86
2023/09/27 07:21:27;;;;;;;13.05;7.43;;;;;;;21.16;51.74;99941.22;4360536;32;34009;-86
2023/09/27 07:23:55;;;;;;;14.77;7.20;;;;;;;21.60;51.02;99947.47;4357019;32;33794;-86
2023/09/27 07:26:23;;;;;;;17.95;7.82;;;;;;;21.44;51.74;99956.56;4347144;32;34262;-86
2023/09/27 07:28:51;;;;;;;21.75;7.20;;;;;;;21.46;52.58;99949.50;4360256;32;33913;-85
2023/09/27 07:31:19;;;;;;;16.35;8.95;;;;;;;21.61;50.72;99959.75;4360304;32;33802;-86
2023/09/27 07:33:52;;;;;;;12.45;7.28;;;;;;;21.61;51.37;99951.84;4353762;32;34058;-85
2023/09/27 07:36:21;;;;;;;15.75;8.07;;;;;;;21.51;51.05;99966.09;4345812;32;34472;-85
2023/09/27 07:38:48;;;;;;;13.45;7.35;;;;;;;21.86;50.21;99952.22;4356069;32;33196;-85
2023/09/27 07:41:16;;;;;;;11.82;6.75;;;;;;;21.57;50.18;99958.94;4360356;32;34096;-86
2023/09/27 07:43:44;;;;;;;19.00;6.97;;;;;;;21.68;49.36;99953.47;4360315;32;34334;-84
2023/09/27 07:46:12;;;;;;;11.20;6.62;;;;;;;21.48;49.73;99959.16;4360297;32;35071;-85
2023/09/27 07:48:41;;;;;;;12.40;7.10;;;;;;;21.69;49.85;99960.47;4360265;32;33034;-84
2023/09/27 07:51:11;;;;;;;12.35;7.03;;;;;;;21.70;49.68;99958.69;4358377;32;33692;-86
2023/09/27 07:53:38;;;;;;;13.10;7.15;;;;;;;21.69;50.04;99970.16;4357047;32;34158;-84
2023/09/27 07:56:09;;;;;;;13.15;7.10;;;;;;;21.89;49.00;99962.69;4372787;32;34334;-83
2023/09/27 07:58:41;;;;;;;16.10;6.47;;;;;;;21.74;48.87;99969.16;4370531;32;33250;-87
2023/09/27 08:01:09;;;;;;;15.05;7.97;;;;;;;22.04;48.46;99964.16;4359695;32;34743;-84
2023/09/27 08:03:38;;;;;;;13.62;7.32;;;;;;;22.22;48.38;99962.94;4359868;32;34351;-85
2023/09/27 08:06:07;;;;;;;16.77;7.70;;;;;;;22.73;48.11;99963.50;4354108;32;34340;-85
2023/09/27 08:08:34;;;;;;;16.85;7.35;;;;;;;22.72;47.90;99959.09;4346883;32;33556;-86
2023/09/27 08:11:02;;;;;;;12.93;7.00;;;;;;;22.92;46.97;99965.69;4345601;32;34242;-86
2023/09/27 08:13:31;;;;;;;13.48;6.93;;;;;;;23.12;47.83;99962.56;4345358;33;33738;-86
2023/09/27 08:16:00;;;;;;;13.15;7.57;;;;;;;23.50;45.69;99961.56;4344132;33;34997;-86
2023/09/27 08:18:27;;;;;;;22.25;7.28;;;;;;;23.11;46.68;99968.75;4348999;32;33685;-85
2023/09/27 08:20:55;;;;;;;12.80;6.87;;;;;;;23.32;46.90;99970.84;4357920;32;34507;-86
2023/09/27 08:23:23;;;;;;;22.75;7.95;;;;;;;23.73;45.26;99975.03;4360076;32;33994;-87
2023/09/27 08:25:52;;;;;;;13.35;6.82;;;;;;;23.56;45.89;99971.94;4356283;32;33633;-87
2023/09/27 08:28:21;;;;;;;10.50;6.62;;;;;;;23.68;46.47;99971.66;4345620;32;33367;-84
2023/09/27 08:30:49;;;;;;;13.70;7.53;;;;;;;23.73;46.02;99969.75;4352893;32;33743;-84
2023/09/27 08:33:17;;;;;;;14.43;7.45;;;;;;;23.88;45.67;99967.56;4348696;32;34109;-87
2023/09/27 08:35:50;;;;;;;17.77;7.80;;;;;;;23.92;45.34;99963.94;4356044;32;34232;-83
2023/09/27 08:38:23;;;;;;;18.15;7.30;;;;;;;23.88;46.43;99967.56;4359449;32;33384;-86
2023/09/27 08:40:51;;;;;;;17.08;7.32;;;;;;;24.04;45.90;99968.84;4350978;32;33685;-86
2023/09/27 08:43:20;;;;;;;15.07;6.62;;;;;;;24.11;46.06;99974.84;4358858;32;35066;-87
2023/09/27 08:45:52;;;;;;;10.63;6.78;;;;;;;24.01;45.61;99976.88;4352284;32;33850;-86
2023/09/27 08:48:24;;;;;;;16.62;8.82;;;;;;;24.36;46.62;99969.66;4352076;32;34639;-86
2023/09/27 08:51:03;;;;;;;15.98;7.95;;;;;;;24.54;46.27;99971.75;4361756;32;33723;-84
2023/09/27 08:53:38;;;;;;;20.67;7.55;;;;;;;24.77;44.18;99963.06;4346999;33;35034;-87
2023/09/27 08:56:07;;;;;;;12.88;7.30;;;;;;;24.55;45.46;99972.63;4348146;33;34818;-88
2023/09/27 08:58:41;;;;;;;16.15;7.40;;;;;;;24.50;45.22;99978.09;4362768;32;33766;-87
2023/09/27 09:01:13;;;;;;;12.37;7.07;;;;;;;24.25;44.93;99973.53;4355702;32;33751;-86
2023/09/27 09:04:06;;;;;;;19.35;8.57;;;;;;;24.51;45.28;99966.59;4353765;33;35069;-86
2023/09/27 09:06:46;;;;;;;17.98;7.22;;;;;;;24.76;44.06;99970.16;4368808;32;33908;-86
2023/09/27 09:09:14;;;;;;;16.50;8.02;;;;;;;24.95;44.22;99969.56;4361359;32;34747;-87
2023/09/27 09:11:48;;;;;;;16.20;7.25;;;;;;;25.01;43.66;99961.41;4364156;32;33572;-87
2023/09/27 09:14:17;;;;;;;16.62;7.53;;;;;;;24.78;44.71;99959.53;4348784;32;33999;-85
2023/09/27 09:16:52;;;;;;;11.30;7.45;;;;;;;25.03;44.29;99956.03;4342985;33;34183;-85
2023/09/27 09:19:22;;;;;;;;;;;;;;;25.28;43.66;99950.78;4346945;32;33666;-85
2023/09/27 09:22:11;;;;;;;12.82;6.60;;;;;;;25.19;43.10;99955.50;4363722;32;34269;-84
2023/09/27 09:24:43;;;;;;;14.85;7.05;;;;;;;24.96;44.68;99953.63;4374015;32;34121;-85
2023/09/27 09:27:13;;;;;;;14.10;7.87;;;;;;;24.89;44.23;99959.12;4374407;32;33689;-84
2023/09/27 09:29:49;;;;;;;12.65;7.20;;;;;;;25.10;43.34;99952.28;4359965;32;33687;-84
2023/09/27 09:32:22;;;;;;;20.25;7.90;;;;;;;24.75;44.25;99949.88;4359855;32;33641;-85
2023/09/27 09:34:51;;;;;;;13.82;7.50;;;;;;;25.16;44.67;99957.41;4356833;32;33715;-85
2023/09/27 09:37:24;;;;;;;15.65;8.00;;;;;;;25.03;44.49;99950.72;4366841;32;33916;-85
2023/09/27 09:39:53;;;;;;;17.77;7.62;;;;;;;25.02;45.89;99965.78;4365120;32;34597;-84
2023/09/27 09:42:32;;;;;;;13.43;7.55;;;;;;;25.21;44.64;99956.31;4355677;32;34426;-85
2023/09/27 09:45:01;;;;;;;11.25;6.87;;;;;;;25.17;43.05;99954.69;4360758;32;34358;-85
2023/09/27 09:47:30;;;;;;;14.05;7.60;;;;;;;25.37;43.05;99939.84;4360986;32;33943;-85
2023/09/27 09:49:58;;;;;;;12.18;7.10;;;;;;;25.33;43.97;99946.19;4361240;32;33743;-85
2023/09/27 09:52:30;;;;;;;17.17;7.22;;;;;;;25.46;43.17;99939.53;4359959;32;33998;-84
2023/09/27 09:54:58;;;;;;;15.90;7.25;;;;;;;25.71;42.85;99940.34;4360343;32;33470;-84
2023/09/27 09:57:43;;;;;;;13.10;6.78;;;;;;;25.03;43.99;99950.72;4360115;32;34989;-84
2023/09/27 10:00:25;;;;;;;15.10;7.43;;;;;;;25.69;43.74;99949.31;4359906;32;34504;-85
2023/09/27 10:03:07;;;;;;;13.48;7.03;;;;;;;25.81;43.54;99942.72;4372032;32;33888;-85
2023/09/27 10:05:38;;;;;;;15.60;6.75;;;;;;;25.77;44.24;99943.72;4372214;32;34074;-84
2023/09/27 10:08:07;;;;;;;16.50;6.93;;;;;;;25.85;40.27;99939.87;4360974;32;34061;-85
2023/09/27 10:10:36;;;;;;;12.52;7.00;;;;;;;25.91;42.87;99939.66;4360965;32;33729;-85
2023/09/27 10:13:05;;;;;;;14.02;6.82;;;;;;;25.89;41.12;99932.66;4361069;32;33997;-86
2023/09/27 10:15:33;;;;;;;15.98;6.78;;;;;;;25.65;42.40;99943.25;4359900;32;33085;-86
2023/09/27 10:18:37;;;;;;;11.68;6.82;;;;;;;25.86;42.02;99938.06;4360986;32;34329;-85
2023/09/27 10:21:09;;;;;;;12.18;7.00;;;;;;;26.39;40.20;99928.00;4350294;32;33378;-86
2023/09/27 10:23:46;;;;;;;15.93;7.03;;;;;;;26.07;42.59;99931.09;4372129;32;34070;-85
2023/09/27 10:26:26;;;;;;;17.00;6.65;;;;;;;26.25;42.09;99934.81;4360924;32;35708;-85
2023/09/27 10:31:32;;;;;;;12.48;6.37;;;;;;;26.46;41.35;99917.19;4360780;32;33891;-86
2023/09/27 10:33:59;;;;;;;11.15;6.15;;;;;;;26.85;39.72;99925.28;4360924;32;33778;-86
2023/09/27 10:36:29;;;;;;;10.32;6.32;;;;;;;26.74;38.38;99920.41;4360693;32;33775;-85
2023/09/27 10:38:57;;;;;;;13.05;6.18;;;;;;;26.72;38.59;99916.97;4371176;32;33862;-86
2023/09/27 10:41:38;;;;;;;15.15;6.72;;;;;;;26.72;39.39;99916.09;4360974;32;33250;-86
2023/09/27 10:44:06;;;;;;;12.90;6.07;;;;;;;26.99;39.42;99922.91;4360987;32;33617;-86
2023/09/27 10:46:45;;;;;;;10.95;6.18;;;;;;;26.82;38.85;99920.09;4360839;32;33720;-85
2023/09/27 10:49:19;;;;;;;11.23;5.95;;;;;;;26.62;39.18;99910.28;4359622;32;33485;-85
2023/09/27 10:51:47;;;;;;;13.10;6.72;;;;;;;26.81;38.21;99913.03;4359721;32;34515;-85
2023/09/27 10:54:28;;;;;;;13.18;6.37;;;;;;;26.90;38.08;99910.03;4359673;32;33694;-86
2023/09/27 10:56:56;;;;;;;15.95;6.78;;;;;;;26.82;39.68;99899.69;4360543;32;33820;-86
2023/09/27 10:59:25;;;;;;;13.55;5.60;;;;;;;27.05;38.13;99901.37;4360772;32;33945;-86
2023/09/27 11:01:54;;;;;;;13.20;6.28;;;;;;;26.96;38.61;99907.06;4372175;32;33812;-86
2023/09/27 11:04:22;;;;;;;11.80;6.10;;;;;;;27.09;37.50;99889.66;4371737;32;34019;-85
2023/09/27 11:06:50;;;;;;;11.80;5.97;;;;;;;26.90;38.38;99880.75;4360645;32;34509;-86
2023/09/27 11:09:19;;;;;;;12.32;6.50;;;;;;;27.12;38.57;99886.00;4360669;32;35067;-86
2023/09/27 11:11:51;;;;;;;14.43;6.32;;;;;;;27.15;37.27;99878.75;4360560;32;34351;-85
2023/09/27 11:14:32;;;;;;;10.05;5.93;;;;;;;27.07;36.63;99872.88;4371686;32;34653;-85
2023/09/27 11:17:29;;;;;;;12.13;5.90;;;;;;;26.92;38.83;99878.87;4359638;32;33324;-85
2023/09/27 11:19:57;;;;;;;14.65;6.82;;;;;;;27.07;36.72;99872.88;4354015;32;35024;-85
2023/09/27 11:22:25;;;;;;;13.55;6.62;;;;;;;27.22;39.21;99875.84;4359439;32;34112;-86
2023/09/27 11:24:53;;;;;;;13.95;6.78;;;;;;;27.17;39.45;99873.38;4359029;32;33388;-86
2023/09/27 11:27:21;;;;;;;13.82;6.15;;;;;;;27.23;36.83;99864.25;4359317;32;34285;-86
2023/09/27 11:29:53;;;;;;;14.10;7.03;;;;;;;27.39;39.43;99867.97;4360497;32;33479;-85
2023/09/27 11:32:21;;;;;;;15.70;6.18;;;;;;;27.43;38.79;99861.56;4359194;32;33732;-86
2023/09/27 11:34:56;;;;;;;14.90;6.78;;;;;;;27.17;38.41;99858.28;4359421;32;34097;-86
2023/09/27 11:37:24;;;;;;;9.82;5.75;;;;;;;27.29;39.93;99861.31;4371470;32;34129;-86
2023/09/27 11:39:54;;;;;;;12.75;5.72;;;;;;;27.41;36.08;99860.75;4359000;32;34033;-86